Time,TemperatureF,DewpointF,PressureIn,WindDirection,WindDirectionDegrees,WindSpeedMPH,WindSpeedGustMPH,Humidity,HourlyPrecipIn,Conditions,Clouds,dailyrainin,SoftwareType,DateUTC
2013-08-13 00:00:00,65.4,47.3,30.09,WNW,298,6.0,8.0,52,0.00,CLR,CLR,0.00,WeatherDisplay:10.34,2013-08-13 06:00:00,
2013-08-13 00:05:00,65.1,47.0,30.09,WNW,295,5.0,5.0,52,0.00,CLR,CLR,0.00,WeatherDisplay:10.34,2013-08-13 06:05:00,
2013-08-13 00:10:00,65.0,46.9,30.09,WNW,295,6.0,9.0,52,0.00,CLR,CLR,0.00,WeatherDisplay:10.34,2013-08-13 06:10:00,
2013-08-13 00:15:00,64.8,47.8,30.09,West,278,7.0,8.0,54,0.00,CLR,CLR,0.00,WeatherDisplay:10.34,2013-08-13 06:15:00,
2013-08-13 00:20:00,64.5,47.5,30.10,WNW,299,7.0,12.0,54,0.00,CLR,CLR,0.00,WeatherDisplay:10.34,2013-08-13 06:20:00,
2013-08-13 00:25:00,64.3,47.3,30.10,NW,310,7.0,7.0,54,0.00,CLR,CLR,0.00,WeatherDisplay:10.34,2013-08-13 06:25:00,
2013-08-13 00:30:00,64.3,47.8,30.11,WNW,299,6.0,7.0,55,0.00,CLR,CLR,0.00,WeatherDisplay:10.34,2013-08-13 06:30:00,
2013-08-13 00:35:00,64.1,47.6,30.11,WNW,303,3.0,5.0,55,0.00,CLR,CLR,0.00,WeatherDisplay:10.34,2013-08-13 06:35:00,
2013-08-13 00:40:00,64.1,47.6,30.11,NNW,330,6.0,8.0,55,0.00,CLR,CLR,0.00,WeatherDisplay:10.34,2013-08-13 06:40:00,
2013-08-13 00:45:00,63.9,47.9,30.11,WNW,293,3.0,3.0,56,0.00,CLR,CLR,0.00,WeatherDisplay:10.34,2013-08-13 06:45:00,
2013-08-13 00:51:00,63.8,47.8,30.11,NW,313,2.0,3.0,56,0.00,CLR,CLR,0.00,WeatherDisplay:10.34,2013-08-13 06:51:00,
2013-08-13 00:56:00,63.7,47.7,30.11,WNW,298,3.0,3.0,56,0.00,CLR,CLR,0.00,WeatherDisplay:10.34,2013-08-13 06:56:00,
2013-08-13 01:01:00,63.6,47.6,30.11,West,259,1.0,3.0,56,0.00,CLR,CLR,0.00,WeatherDisplay:10.34,2013-08-13 07:01:00,
2013-08-13 01:06:00,63.4,47.4,30.11,West,259,0.0,0.0,56,0.00,CLR,CLR,0.00,WeatherDisplay:10.34,2013-08-13 07:06:00,
2013-08-13 01:11:00,63.3,47.3,30.11,West,259,0.0,0.0,56,0.00,CLR,CLR,0.00,WeatherDisplay:10.34,2013-08-13 07:11:00,
2013-08-13 01:16:00,63.2,47.7,30.11,WNW,286,5.0,5.0,57,0.00,CLR,CLR,0.00,WeatherDisplay:10.34,2013-08-13 07:16:00,
2013-08-13 01:21:00,63.1,48.1,30.12,West,269,4.0,4.0,58,0.00,CLR,CLR,0.00,WeatherDisplay:10.34,2013-08-13 07:21:00,
2013-08-13 01:26:00,63.0,48.0,30.12,West,259,5.0,5.0,58,0.00,CLR,CLR,0.00,WeatherDisplay:10.34,2013-08-13 07:26:00,
2013-08-13 01:31:00,63.0,48.0,30.11,West,259,3.0,3.0,58,0.00,CLR,CLR,0.00,WeatherDisplay:10.34,2013-08-13 07:31:00,
2013-08-13 01:36:00,62.9,47.9,30.11,SW,230,5.0,5.0,58,0.00,CLR,CLR,0.00,WeatherDisplay:10.34,2013-08-13 07:36:00,
2013-08-13 01:41:00,62.7,48.2,30.11,SW,234,3.0,3.0,59,0.00,CLR,CLR,0.00,WeatherDisplay:10.34,2013-08-13 07:41:00,
2013-08-13 01:46:00,62.3,47.8,30.11,SW,233,3.0,3.0,59,0.00,CLR,CLR,0.00,WeatherDisplay:10.34,2013-08-13 07:46:00,
2013-08-13 01:51:00,61.9,47.9,30.11,WSW,249,2.0,2.0,60,0.00,CLR,CLR,0.00,WeatherDisplay:10.34,2013-08-13 07:51:00,
2013-08-13 01:56:00,61.5,47.9,30.11,WSW,250,0.0,1.0,61,0.00,CLR,CLR,0.00,WeatherDisplay:10.34,2013-08-13 07:56:00,
2013-08-13 02:01:00,61.3,47.3,30.11,WSW,250,0.0,0.0,60,0.00,CLR,CLR,0.00,WeatherDisplay:10.34,2013-08-13 08:01:00,
2013-08-13 02:06:00,61.1,47.1,30.11,WNW,284,2.0,7.0,60,0.00,CLR,CLR,0.00,WeatherDisplay:10.34,2013-08-13 08:06:00,
2013-08-13 02:11:00,60.8,47.3,30.10,West,279,4.0,4.0,61,0.00,CLR,CLR,0.00,WeatherDisplay:10.34,2013-08-13 08:11:00,
2013-08-13 02:16:00,60.6,47.5,30.10,WSW,246,5.0,5.0,62,0.00,CLR,CLR,0.00,WeatherDisplay:10.34,2013-08-13 08:16:00,
2013-08-13 02:21:00,60.5,47.4,30.10,WSW,250,6.0,7.0,62,0.00,CLR,CLR,0.00,WeatherDisplay:10.34,2013-08-13 08:21:00,
2013-08-13 02:26:00,60.4,47.7,30.10,WSW,252,6.0,8.0,63,0.00,CLR,CLR,0.00,WeatherDisplay:10.34,2013-08-13 08:26:00,
2013-08-13 02:31:00,60.4,47.7,30.10,WSW,256,2.0,2.0,63,0.00,CLR,CLR,0.00,WeatherDisplay:10.34,2013-08-13 08:31:00,
2013-08-13 02:36:00,60.3,47.6,30.10,West,259,2.0,2.0,63,0.00,CLR,CLR,0.00,WeatherDisplay:10.34,2013-08-13 08:36:00,
2013-08-13 02:41:00,60.4,47.7,30.10,West,265,6.0,6.0,63,0.00,CLR,CLR,0.00,WeatherDisplay:10.34,2013-08-13 08:41:00,
2013-08-13 02:46:00,60.4,47.7,30.10,WSW,249,5.0,7.0,63,0.00,CLR,CLR,0.00,WeatherDisplay:10.34,2013-08-13 08:46:00,
2013-08-13 02:51:00,60.5,47.4,30.10,WSW,248,2.0,2.0,62,0.00,CLR,CLR,0.00,WeatherDisplay:10.34,2013-08-13 08:51:00,
2013-08-13 02:56:00,60.6,47.5,30.09,West,267,5.0,5.0,62,0.00,CLR,CLR,0.00,WeatherDisplay:10.34,2013-08-13 08:56:00,
2013-08-13 03:01:00,60.6,47.5,30.09,West,266,4.0,4.0,62,0.00,CLR,CLR,0.00,WeatherDisplay:10.34,2013-08-13 09:01:00,
2013-08-13 03:06:00,60.7,47.6,30.09,West,263,4.0,5.0,62,0.00,CLR,CLR,0.00,WeatherDisplay:10.34,2013-08-13 09:06:00,
2013-08-13 03:11:00,60.7,47.6,30.10,WSW,242,1.0,1.0,62,0.00,CLR,CLR,0.00,WeatherDisplay:10.34,2013-08-13 09:11:00,
2013-08-13 03:16:00,60.6,47.5,30.10,WSW,242,1.0,2.0,62,0.00,CLR,CLR,0.00,WeatherDisplay:10.34,2013-08-13 09:16:00,
2013-08-13 03:21:00,60.5,47.4,30.10,WSW,242,0.0,0.0,62,0.00,CLR,CLR,0.00,WeatherDisplay:10.34,2013-08-13 09:21:00,
2013-08-13 03:26:00,60.2,46.7,30.10,WSW,241,2.0,2.0,61,0.00,CLR,CLR,0.00,WeatherDisplay:10.34,2013-08-13 09:26:00,
2013-08-13 03:31:00,59.9,46.8,30.10,WSW,242,2.0,2.0,62,0.00,CLR,CLR,0.00,WeatherDisplay:10.34,2013-08-13 09:31:00,
2013-08-13 03:36:00,59.5,46.9,30.10,WSW,242,4.0,4.0,63,0.00,CLR,CLR,0.00,WeatherDisplay:10.34,2013-08-13 09:36:00,
2013-08-13 03:41:00,59.0,46.8,30.10,WSW,241,1.0,1.0,64,0.00,CLR,CLR,0.00,WeatherDisplay:10.34,2013-08-13 09:41:00,
2013-08-13 03:46:00,58.4,46.7,30.10,WSW,241,0.0,0.0,65,0.00,CLR,CLR,0.00,WeatherDisplay:10.34,2013-08-13 09:46:00,
2013-08-13 03:51:00,57.7,46.4,30.10,WSW,242,1.0,2.0,66,0.00,CLR,CLR,0.00,WeatherDisplay:10.34,2013-08-13 09:51:00,
2013-08-13 03:56:00,57.1,46.2,30.10,WSW,237,1.0,1.0,67,0.00,CLR,CLR,0.00,WeatherDisplay:10.34,2013-08-13 09:56:00,
2013-08-13 04:01:00,56.6,46.5,30.10,SW,235,3.0,3.0,69,0.00,CLR,CLR,0.00,WeatherDisplay:10.34,2013-08-13 10:01:00,
2013-08-13 04:06:00,56.0,46.7,30.10,SW,235,3.0,3.0,71,0.00,CLR,CLR,0.00,WeatherDisplay:10.34,2013-08-13 10:06:00,
2013-08-13 04:11:00,55.5,47.0,30.10,SW,235,2.0,2.0,73,0.00,CLR,CLR,0.00,WeatherDisplay:10.34,2013-08-13 10:11:00,
2013-08-13 04:16:00,54.9,46.8,30.10,SW,235,3.0,3.0,74,0.00,CLR,CLR,0.00,WeatherDisplay:10.34,2013-08-13 10:16:00,
2013-08-13 04:21:00,54.6,46.8,30.10,SW,234,3.0,3.0,75,0.00,CLR,CLR,0.00,WeatherDisplay:10.34,2013-08-13 10:21:00,
2013-08-13 04:26:00,54.4,46.6,30.10,SW,234,0.0,1.0,75,0.00,CLR,CLR,0.00,WeatherDisplay:10.34,2013-08-13 10:26:00,
2013-08-13 04:31:00,54.1,46.3,30.10,SW,214,2.0,2.0,75,0.00,CLR,CLR,0.00,WeatherDisplay:10.34,2013-08-13 10:31:00,
2013-08-13 04:36:00,53.9,46.5,30.10,SW,214,0.0,0.0,76,0.00,CLR,CLR,0.00,WeatherDisplay:10.34,2013-08-13 10:36:00,
2013-08-13 04:41:00,53.8,46.4,30.10,SW,214,0.0,0.0,76,0.00,CLR,CLR,0.00,WeatherDisplay:10.34,2013-08-13 10:41:00,
2013-08-13 04:46:00,53.6,46.2,30.10,SW,214,0.0,1.0,76,0.00,CLR,CLR,0.00,WeatherDisplay:10.34,2013-08-13 10:46:00,
2013-08-13 04:51:00,53.3,46.6,30.11,SW,214,3.0,3.0,78,0.00,CLR,CLR,0.00,WeatherDisplay:10.34,2013-08-13 10:51:00,
2013-08-13 04:56:00,53.1,46.4,30.11,South,191,4.0,4.0,78,0.00,CLR,CLR,0.00,WeatherDisplay:10.34,2013-08-13 10:56:00,
2013-08-13 05:01:00,52.9,46.6,30.11,SSW,211,5.0,7.0,79,0.00,CLR,CLR,0.00,WeatherDisplay:10.34,2013-08-13 11:01:00,
2013-08-13 05:06:00,53.0,47.0,30.11,SSW,211,6.0,7.0,80,0.00,CLR,CLR,0.00,WeatherDisplay:10.34,2013-08-13 11:06:00,
2013-08-13 05:11:00,53.1,47.1,30.11,SW,215,5.0,5.0,80,0.00,CLR,CLR,0.00,WeatherDisplay:10.34,2013-08-13 11:11:00,
2013-08-13 05:16:00,53.2,46.9,30.11,SSW,213,4.0,7.0,79,0.00,CLR,CLR,0.00,WeatherDisplay:10.34,2013-08-13 11:16:00,
2013-08-13 05:21:00,53.5,46.8,30.11,SW,222,9.0,10.0,78,0.00,CLR,CLR,0.00,WeatherDisplay:10.34,2013-08-13 11:21:00,
2013-08-13 05:26:00,53.7,47.0,30.11,SW,218,4.0,5.0,78,0.00,CLR,CLR,0.00,WeatherDisplay:10.34,2013-08-13 11:26:00,
2013-08-13 05:31:00,53.9,46.9,30.11,SW,222,5.0,5.0,77,0.00,CLR,CLR,0.00,WeatherDisplay:10.34,2013-08-13 11:31:00,
2013-08-13 05:36:00,54.1,47.0,30.11,SW,230,4.0,4.0,77,0.00,CLR,CLR,0.00,WeatherDisplay:10.34,2013-08-13 11:36:00,
2013-08-13 05:41:00,54.2,46.8,30.11,SW,231,5.0,5.0,76,0.00,CLR,CLR,0.00,WeatherDisplay:10.34,2013-08-13 11:41:00,
2013-08-13 05:46:00,54.2,46.8,30.11,SW,230,7.0,7.0,76,0.00,CLR,CLR,0.00,WeatherDisplay:10.34,2013-08-13 11:46:00,
2013-08-13 05:51:00,54.2,46.8,30.11,SW,234,7.0,7.0,76,0.00,CLR,CLR,0.00,WeatherDisplay:10.34,2013-08-13 11:51:00,
2013-08-13 05:56:00,54.3,46.9,30.11,SW,232,4.0,7.0,76,0.00,CLR,CLR,0.00,WeatherDisplay:10.34,2013-08-13 11:56:00,
2013-08-13 06:01:00,54.5,46.7,30.11,SW,229,6.0,6.0,75,0.00,OVC,OVC,0.00,WeatherDisplay:10.34,2013-08-13 12:01:00,
2013-08-13 06:06:00,54.7,46.9,30.11,SW,215,5.0,5.0,75,0.00,OVC,OVC,0.00,WeatherDisplay:10.34,2013-08-13 12:06:00,
2013-08-13 06:11:00,54.9,46.8,30.11,SW,215,1.0,1.0,74,0.00,OVC,OVC,0.00,WeatherDisplay:10.34,2013-08-13 12:11:00,
2013-08-13 06:16:00,55.0,46.9,30.12,SW,216,0.0,1.0,74,0.00,OVC,OVC,0.00,WeatherDisplay:10.34,2013-08-13 12:16:00,
2013-08-13 06:21:00,55.0,46.5,30.12,SW,215,1.0,2.0,73,0.00,OVC,OVC,0.00,WeatherDisplay:10.34,2013-08-13 12:21:00,
2013-08-13 06:26:00,55.0,46.5,30.12,SW,215,1.0,2.0,73,0.00,SCT,SCT,0.00,WeatherDisplay:10.34,2013-08-13 12:26:00,
2013-08-13 06:31:00,55.0,46.9,30.12,SW,216,3.0,3.0,74,0.00,SCT,SCT,0.00,WeatherDisplay:10.34,2013-08-13 12:31:00,
2013-08-13 06:36:00,55.0,46.9,30.12,SW,215,0.0,1.0,74,0.00,SCT,SCT,0.00,WeatherDisplay:10.34,2013-08-13 12:36:00,
2013-08-13 06:41:00,54.9,46.8,30.12,SW,216,1.0,1.0,74,0.00,SCT,SCT,0.00,WeatherDisplay:10.34,2013-08-13 12:41:00,
2013-08-13 06:46:00,54.9,46.8,30.12,SW,216,3.0,3.0,74,0.00,FEW,FEW,0.00,WeatherDisplay:10.34,2013-08-13 12:46:00,
2013-08-13 06:51:00,54.9,47.1,30.12,SW,227,8.0,8.0,75,0.00,FEW,FEW,0.00,WeatherDisplay:10.34,2013-08-13 12:51:00,
2013-08-13 06:56:00,55.1,47.3,30.13,SW,221,3.0,3.0,75,0.00,FEW,FEW,0.00,WeatherDisplay:10.34,2013-08-13 12:56:00,
2013-08-13 07:01:00,55.2,47.8,30.13,SW,227,4.0,5.0,76,0.00,CLR,CLR,0.00,WeatherDisplay:10.34,2013-08-13 13:01:00,
2013-08-13 07:06:00,55.3,47.9,30.13,SW,227,3.0,3.0,76,0.00,CLR,CLR,0.00,WeatherDisplay:10.34,2013-08-13 13:06:00,
2013-08-13 07:11:00,55.4,48.0,30.13,SW,227,0.0,1.0,76,0.00,CLR,CLR,0.00,WeatherDisplay:10.34,2013-08-13 13:11:00,
2013-08-13 07:16:00,55.6,48.2,30.13,SW,227,0.0,0.0,76,0.00,CLR,CLR,0.00,WeatherDisplay:10.34,2013-08-13 13:16:00,
2013-08-13 07:21:00,55.9,49.1,30.13,SW,227,1.0,2.0,78,0.00,CLR,CLR,0.00,WeatherDisplay:10.34,2013-08-13 13:21:00,
2013-08-13 07:26:00,56.3,49.9,30.13,SW,227,0.0,1.0,79,0.00,CLR,CLR,0.00,WeatherDisplay:10.34,2013-08-13 13:26:00,
2013-08-13 07:31:00,56.7,50.3,30.13,SW,227,0.0,0.0,79,0.00,CLR,CLR,0.00,WeatherDisplay:10.34,2013-08-13 13:31:00,
2013-08-13 07:36:00,57.1,50.3,30.13,SW,227,1.0,1.0,78,0.00,CLR,CLR,0.00,WeatherDisplay:10.34,2013-08-13 13:36:00,
2013-08-13 07:41:00,57.6,50.8,30.13,SW,227,0.0,0.0,78,0.00,CLR,CLR,0.00,WeatherDisplay:10.34,2013-08-13 13:41:00,
2013-08-13 07:46:00,58.1,51.3,30.13,SW,227,0.0,1.0,78,0.00,CLR,CLR,0.00,WeatherDisplay:10.34,2013-08-13 13:46:00,
2013-08-13 07:51:00,59.0,51.4,30.13,SW,227,0.0,1.0,76,0.00,CLR,CLR,0.00,WeatherDisplay:10.34,2013-08-13 13:51:00,
2013-08-13 07:56:00,59.2,51.3,30.13,SW,227,0.0,1.0,75,0.00,CLR,CLR,0.00,WeatherDisplay:10.34,2013-08-13 13:56:00,
2013-08-13 08:01:00,60.0,52.4,30.13,SW,227,0.0,0.0,76,0.00,CLR,CLR,0.00,WeatherDisplay:10.34,2013-08-13 14:01:00,
2013-08-13 08:06:00,60.5,52.2,30.13,SW,227,0.0,0.0,74,0.00,CLR,CLR,0.00,WeatherDisplay:10.34,2013-08-13 14:06:00,
2013-08-13 08:11:00,61.5,50.8,30.13,SW,218,1.0,1.0,68,0.00,CLR,CLR,0.00,WeatherDisplay:10.34,2013-08-13 14:11:00,
2013-08-13 08:16:00,62.5,51.8,30.13,South,178,3.0,3.0,68,0.00,CLR,CLR,0.00,WeatherDisplay:10.34,2013-08-13 14:16:00,
2013-08-13 08:21:00,63.4,51.8,30.13,South,178,2.0,2.0,66,0.00,CLR,CLR,0.00,WeatherDisplay:10.34,2013-08-13 14:21:00,
2013-08-13 08:26:00,64.1,50.8,30.13,South,178,4.0,4.0,62,0.00,CLR,CLR,0.00,WeatherDisplay:10.34,2013-08-13 14:26:00,
2013-08-13 08:31:00,64.7,50.0,30.14,South,172,3.0,3.0,59,0.00,CLR,CLR,0.00,WeatherDisplay:10.34,2013-08-13 14:31:00,
2013-08-13 08:36:00,65.2,50.0,30.14,SSE,167,2.0,3.0,58,0.00,CLR,CLR,0.00,WeatherDisplay:10.34,2013-08-13 14:36:00,
2013-08-13 08:41:00,65.9,49.8,30.13,SSE,167,3.0,3.0,56,0.00,CLR,CLR,0.00,WeatherDisplay:10.34,2013-08-13 14:41:00,
2013-08-13 08:46:00,66.5,50.8,30.13,SE,144,4.0,5.0,57,0.00,CLR,CLR,0.00,WeatherDisplay:10.34,2013-08-13 14:46:00,
2013-08-13 08:51:00,67.1,49.4,30.13,SSE,157,5.0,5.0,53,0.00,CLR,CLR,0.00,WeatherDisplay:10.34,2013-08-13 14:51:00,
2013-08-13 08:56:00,67.6,50.4,30.13,South,184,6.0,7.0,54,0.00,CLR,CLR,0.00,WeatherDisplay:10.34,2013-08-13 14:56:00,
2013-08-13 09:01:00,68.0,50.2,30.13,South,177,5.0,7.0,53,0.00,CLR,CLR,0.00,WeatherDisplay:10.34,2013-08-13 15:01:00,
2013-08-13 09:06:00,68.2,50.9,30.13,SSW,206,6.0,7.0,54,0.00,CLR,CLR,0.00,WeatherDisplay:10.34,2013-08-13 15:06:00,
2013-08-13 09:11:00,68.4,50.6,30.13,SSW,206,5.0,5.0,53,0.00,FEW,FEW,0.00,WeatherDisplay:10.34,2013-08-13 15:11:00,
2013-08-13 09:16:00,68.8,50.5,30.13,SSW,200,5.0,5.0,52,0.00,CLR,CLR,0.00,WeatherDisplay:10.34,2013-08-13 15:16:00,
2013-08-13 09:21:00,69.1,49.7,30.13,SSE,164,4.0,5.0,50,0.00,CLR,CLR,0.00,WeatherDisplay:10.34,2013-08-13 15:21:00,
2013-08-13 09:26:00,69.5,50.0,30.13,SSE,159,3.0,3.0,50,0.00,CLR,CLR,0.00,WeatherDisplay:10.34,2013-08-13 15:26:00,
2013-08-13 09:31:00,69.8,50.3,30.13,SSW,196,6.0,8.0,50,0.00,CLR,CLR,0.00,WeatherDisplay:10.34,2013-08-13 15:31:00,
2013-08-13 09:36:00,70.2,51.2,30.13,South,190,3.0,7.0,51,0.00,FEW,FEW,0.00,WeatherDisplay:10.34,2013-08-13 15:36:00,
2013-08-13 09:41:00,70.6,50.5,30.13,South,189,3.0,3.0,49,0.00,CLR,CLR,0.00,WeatherDisplay:10.34,2013-08-13 15:41:00,
2013-08-13 09:46:00,71.0,52.0,30.13,SW,223,7.0,7.0,51,0.00,CLR,CLR,0.00,WeatherDisplay:10.34,2013-08-13 15:46:00,
2013-08-13 09:51:00,71.3,51.7,30.13,South,176,4.0,5.0,50,0.00,CLR,CLR,0.00,WeatherDisplay:10.34,2013-08-13 15:51:00,
2013-08-13 09:56:00,71.7,50.4,30.13,SSE,164,4.0,5.0,47,0.00,CLR,CLR,0.00,WeatherDisplay:10.34,2013-08-13 15:56:00,
2013-08-13 10:01:00,72.1,50.8,30.13,South,189,5.0,7.0,47,0.00,CLR,CLR,0.00,WeatherDisplay:10.34,2013-08-13 16:01:00,
2013-08-13 10:06:00,72.8,50.8,30.13,SSE,155,1.0,3.0,46,0.00,CLR,CLR,0.00,WeatherDisplay:10.34,2013-08-13 16:06:00,
2013-08-13 10:11:00,73.2,52.3,30.12,SSE,153,6.0,7.0,48,0.00,FEW,FEW,0.00,WeatherDisplay:10.34,2013-08-13 16:11:00,
2013-08-13 10:16:00,73.5,52.0,30.12,ESE,113,5.0,5.0,47,0.00,CLR,CLR,0.00,WeatherDisplay:10.34,2013-08-13 16:16:00,
2013-08-13 10:21:00,73.9,51.2,30.12,ESE,102,5.0,5.0,45,0.00,FEW,FEW,0.00,WeatherDisplay:10.34,2013-08-13 16:21:00,
2013-08-13 10:26:00,74.4,52.3,30.12,South,169,8.0,10.0,46,0.00,FEW,FEW,0.00,WeatherDisplay:10.34,2013-08-13 16:26:00,
2013-08-13 10:31:00,74.7,50.7,30.12,South,177,6.0,7.0,43,0.00,CLR,CLR,0.00,WeatherDisplay:10.34,2013-08-13 16:31:00,
2013-08-13 10:36:00,74.8,51.4,30.12,ESE,121,2.0,2.0,44,0.00,CLR,CLR,0.00,WeatherDisplay:10.34,2013-08-13 16:36:00,
2013-08-13 10:41:00,75.3,51.9,30.12,East,94,2.0,2.0,44,0.00,CLR,CLR,0.00,WeatherDisplay:10.34,2013-08-13 16:41:00,
2013-08-13 10:46:00,75.7,51.0,30.12,East,88,4.0,7.0,42,0.00,CLR,CLR,0.00,WeatherDisplay:10.34,2013-08-13 16:46:00,
2013-08-13 10:51:00,76.2,50.8,30.12,NE,42,2.0,3.0,41,0.00,CLR,CLR,0.00,WeatherDisplay:10.34,2013-08-13 16:51:00,
2013-08-13 10:56:00,76.9,50.7,30.12,East,91,9.0,10.0,40,0.00,FEW,FEW,0.00,WeatherDisplay:10.34,2013-08-13 16:56:00,
2013-08-13 11:01:00,77.1,50.2,30.12,ESE,102,8.0,9.0,39,0.00,FEW,FEW,0.00,WeatherDisplay:10.34,2013-08-13 17:01:00,
2013-08-13 11:06:00,77.4,51.2,30.12,East,92,6.0,8.0,40,0.00,FEW,FEW,0.00,WeatherDisplay:10.34,2013-08-13 17:06:00,
2013-08-13 11:12:00,77.6,50.0,30.12,East,95,10.0,10.0,38,0.00,FEW,FEW,0.00,WeatherDisplay:10.34,2013-08-13 17:12:00,
2013-08-13 11:18:00,77.3,49.7,30.12,ESE,111,7.0,9.0,38,0.00,BKN,BKN,0.00,WeatherDisplay:10.34,2013-08-13 17:18:00,
2013-08-13 11:23:00,76.9,49.4,30.12,East,96,4.0,7.0,38,0.00,OVC,OVC,0.00,WeatherDisplay:10.34,2013-08-13 17:23:00,
2013-08-13 11:28:00,76.4,48.9,30.12,SE,124,4.0,5.0,38,0.00,OVC,OVC,0.00,WeatherDisplay:10.34,2013-08-13 17:28:00,
2013-08-13 11:33:00,75.9,49.2,30.12,NE,52,5.0,7.0,39,0.00,OVC,OVC,0.00,WeatherDisplay:10.34,2013-08-13 17:33:00,
2013-08-13 11:38:00,76.0,50.6,30.12,NE,52,5.0,5.0,41,0.00,CLR,CLR,0.00,WeatherDisplay:10.34,2013-08-13 17:38:00,
2013-08-13 11:43:00,76.7,49.9,30.12,NE,38,9.0,9.0,39,0.00,CLR,CLR,0.00,WeatherDisplay:10.34,2013-08-13 17:43:00,
2013-08-13 11:48:00,77.3,49.7,30.12,NE,53,11.0,11.0,38,0.00,FEW,FEW,0.00,WeatherDisplay:10.34,2013-08-13 17:48:00,
2013-08-13 11:53:00,77.6,54.0,30.12,North,350,5.0,7.0,44,0.00,FEW,FEW,0.00,WeatherDisplay:10.34,2013-08-13 17:53:00,
2013-08-13 11:58:00,78.0,53.7,30.11,NE,34,7.0,9.0,43,0.00,FEW,FEW,0.00,WeatherDisplay:10.34,2013-08-13 17:58:00,
2013-08-13 12:03:00,78.4,52.1,30.11,East,80,7.0,9.0,40,0.00,FEW,FEW,0.00,WeatherDisplay:10.34,2013-08-13 18:03:00,
2013-08-13 12:08:00,78.9,52.5,30.11,East,88,7.0,7.0,40,0.00,FEW,FEW,0.00,WeatherDisplay:10.34,2013-08-13 18:08:00,
2013-08-13 12:13:00,79.2,52.1,30.11,NE,40,13.0,13.0,39,0.00,FEW,FEW,0.00,WeatherDisplay:10.34,2013-08-13 18:13:00,
2013-08-13 12:18:00,79.4,53.6,30.11,NE,48,13.0,13.0,41,0.00,FEW,FEW,0.00,WeatherDisplay:10.34,2013-08-13 18:18:00,
2013-08-13 12:23:00,79.3,52.2,30.10,NE,51,7.0,12.0,39,0.00,FEW,FEW,0.00,WeatherDisplay:10.34,2013-08-13 18:23:00,
2013-08-13 12:28:00,79.4,52.3,30.11,NE,38,10.0,12.0,39,0.00,FEW,FEW,0.00,WeatherDisplay:10.34,2013-08-13 18:28:00,
2013-08-13 12:33:00,80.0,52.8,30.10,NNE,19,8.0,9.0,39,0.00,FEW,FEW,0.00,WeatherDisplay:10.34,2013-08-13 18:33:00,
2013-08-13 12:38:00,80.0,51.4,30.10,East,90,14.0,14.0,37,0.00,FEW,FEW,0.00,WeatherDisplay:10.34,2013-08-13 18:38:00,
2013-08-13 12:43:00,80.3,52.4,30.09,NE,36,6.0,9.0,38,0.00,FEW,FEW,0.00,WeatherDisplay:10.34,2013-08-13 18:43:00,
2013-08-13 12:48:00,80.7,51.3,30.10,ENE,74,16.0,16.0,36,0.00,FEW,FEW,0.00,WeatherDisplay:10.34,2013-08-13 18:48:00,
2013-08-13 12:53:00,81.1,53.1,30.09,NE,49,5.0,7.0,38,0.00,FEW,FEW,0.00,WeatherDisplay:10.34,2013-08-13 18:53:00,
2013-08-13 12:58:00,81.2,51.7,30.09,ENE,68,12.0,13.0,36,0.00,BKN,BKN,0.00,WeatherDisplay:10.34,2013-08-13 18:58:00,
2013-08-13 13:03:00,81.1,49.3,30.09,North,9,1.0,7.0,33,0.00,SCT,SCT,0.00,WeatherDisplay:10.34,2013-08-13 19:03:00,
2013-08-13 13:08:00,81.4,48.7,30.09,ESE,102,9.0,12.0,32,0.00,BKN,BKN,0.00,WeatherDisplay:10.34,2013-08-13 19:08:00,
2013-08-13 13:13:00,81.3,49.4,30.08,East,84,10.0,10.0,33,0.00,SCT,SCT,0.00,WeatherDisplay:10.34,2013-08-13 19:13:00,
2013-08-13 13:18:00,81.1,52.4,30.08,NE,56,6.0,7.0,37,0.00,SCT,SCT,0.00,WeatherDisplay:10.34,2013-08-13 19:18:00,
2013-08-13 13:23:00,81.3,51.8,30.08,ENE,72,12.0,12.0,36,0.00,FEW,FEW,0.00,WeatherDisplay:10.34,2013-08-13 19:23:00,
2013-08-13 13:28:00,81.3,54.0,30.07,NNW,338,5.0,8.0,39,0.00,BKN,BKN,0.00,WeatherDisplay:10.34,2013-08-13 19:28:00,
2013-08-13 13:33:00,81.2,50.9,30.08,NNE,26,9.0,10.0,35,0.00,FEW,FEW,0.00,WeatherDisplay:10.34,2013-08-13 19:33:00,
2013-08-13 13:38:00,82.0,49.2,30.07,ESE,114,5.0,9.0,32,0.00,FEW,FEW,0.00,WeatherDisplay:10.34,2013-08-13 19:38:00,
2013-08-13 13:43:00,82.7,51.5,30.07,East,89,8.0,12.0,34,0.00,FEW,FEW,0.00,WeatherDisplay:10.34,2013-08-13 19:43:00,
2013-08-13 13:48:00,82.6,48.9,30.07,ENE,78,7.0,12.0,31,0.00,BKN,BKN,0.00,WeatherDisplay:10.34,2013-08-13 19:48:00,
2013-08-13 13:53:00,82.6,49.7,30.07,ESE,104,13.0,13.0,32,0.00,SCT,SCT,0.00,WeatherDisplay:10.34,2013-08-13 19:53:00,
2013-08-13 13:58:00,83.0,49.2,30.07,ENE,68,13.0,13.0,31,0.00,FEW,FEW,0.00,WeatherDisplay:10.34,2013-08-13 19:58:00,
2013-08-13 14:03:00,82.8,49.9,30.07,NE,56,8.0,8.0,32,0.00,BKN,BKN,0.00,WeatherDisplay:10.34,2013-08-13 20:03:00,
2013-08-13 14:08:00,82.9,48.3,30.07,East,87,11.0,11.0,30,0.00,FEW,FEW,0.00,WeatherDisplay:10.34,2013-08-13 20:08:00,
2013-08-13 14:13:00,83.2,49.4,30.06,NNE,32,12.0,12.0,31,0.00,FEW,FEW,0.00,WeatherDisplay:10.34,2013-08-13 20:13:00,
2013-08-13 14:18:00,83.2,50.3,30.06,East,82,14.0,14.0,32,0.00,FEW,FEW,0.00,WeatherDisplay:10.34,2013-08-13 20:18:00,
2013-08-13 14:23:00,83.3,50.4,30.06,ENE,78,7.0,12.0,32,0.00,CLR,CLR,0.00,WeatherDisplay:10.34,2013-08-13 20:23:00,
2013-08-13 14:28:00,83.8,49.9,30.06,ESE,104,7.0,9.0,31,0.00,CLR,CLR,0.00,WeatherDisplay:10.34,2013-08-13 20:28:00,
2013-08-13 14:33:00,84.1,50.2,30.06,ENE,76,13.0,13.0,31,0.00,FEW,FEW,0.00,WeatherDisplay:10.34,2013-08-13 20:33:00,
2013-08-13 14:38:00,84.3,50.4,30.06,East,84,5.0,5.0,31,0.00,SCT,SCT,0.00,WeatherDisplay:10.34,2013-08-13 20:38:00,
2013-08-13 14:43:00,84.5,49.7,30.05,East,84,5.0,7.0,30,0.00,SCT,SCT,0.00,WeatherDisplay:10.34,2013-08-13 20:43:00,
2013-08-13 14:48:00,84.5,47.8,30.05,ENE,76,6.0,8.0,28,0.00,FEW,FEW,0.00,WeatherDisplay:10.34,2013-08-13 20:48:00,
2013-08-13 14:53:00,84.4,48.7,30.06,ENE,76,7.0,9.0,29,0.00,BKN,BKN,0.00,WeatherDisplay:10.34,2013-08-13 20:53:00,
2013-08-13 14:58:00,84.0,48.3,30.06,SE,124,7.0,7.0,29,0.00,BKN,BKN,0.00,WeatherDisplay:10.34,2013-08-13 20:58:00,
2013-08-13 15:03:00,83.7,48.1,30.06,SE,126,11.0,12.0,29,0.00,BKN,BKN,0.00,WeatherDisplay:10.34,2013-08-13 21:03:00,
2013-08-13 15:08:00,83.3,48.6,30.06,SE,124,8.0,10.0,30,0.00,BKN,BKN,0.00,WeatherDisplay:10.34,2013-08-13 21:08:00,
2013-08-13 15:13:00,83.1,49.3,30.06,ESE,105,10.0,10.0,31,0.00,OVC,OVC,0.00,WeatherDisplay:10.34,2013-08-13 21:13:00,
2013-08-13 15:18:00,83.0,47.5,30.06,East,79,7.0,8.0,29,0.00,BKN,BKN,0.00,WeatherDisplay:10.34,2013-08-13 21:18:00,
2013-08-13 15:23:00,82.7,48.1,30.05,NE,47,10.0,10.0,30,0.00,BKN,BKN,0.00,WeatherDisplay:10.34,2013-08-13 21:23:00,
2013-08-13 15:28:00,82.3,46.9,30.05,East,96,9.0,9.0,29,0.00,BKN,BKN,0.00,WeatherDisplay:10.34,2013-08-13 21:28:00,
2013-08-13 15:33:00,82.1,47.6,30.05,East,97,7.0,7.0,30,0.00,OVC,OVC,0.00,WeatherDisplay:10.34,2013-08-13 21:33:00,
2013-08-13 15:38:00,82.1,47.6,30.05,East,84,9.0,9.0,30,0.00,OVC,OVC,0.00,WeatherDisplay:10.34,2013-08-13 21:38:00,
2013-08-13 15:43:00,81.9,47.4,30.04,East,88,5.0,5.0,30,0.00,OVC,OVC,0.00,WeatherDisplay:10.34,2013-08-13 21:43:00,
2013-08-13 15:48:00,81.8,47.3,30.04,ESE,108,5.0,7.0,30,0.00,OVC,OVC,0.00,WeatherDisplay:10.34,2013-08-13 21:48:00,
2013-08-13 15:53:00,81.7,47.2,30.05,East,88,7.0,8.0,30,0.00,OVC,OVC,0.00,WeatherDisplay:10.34,2013-08-13 21:53:00,
2013-08-13 15:58:00,81.6,46.3,30.05,ESE,105,0.0,1.0,29,0.00,OVC,OVC,0.00,WeatherDisplay:10.34,2013-08-13 21:58:00,
2013-08-13 16:03:00,81.7,47.2,30.05,ENE,71,3.0,3.0,30,0.00,OVC,OVC,0.00,WeatherDisplay:10.34,2013-08-13 22:03:00,
2013-08-13 16:08:00,81.6,48.0,30.05,NE,53,6.0,7.0,31,0.00,OVC,OVC,0.00,WeatherDisplay:10.34,2013-08-13 22:08:00,
2013-08-13 16:13:00,81.5,47.1,30.06,North,360,0.0,1.0,30,0.00,OVC,OVC,0.00,WeatherDisplay:10.34,2013-08-13 22:13:00,
2013-08-13 16:18:00,81.5,46.2,30.06,NE,34,3.0,3.0,29,0.00,OVC,OVC,0.00,WeatherDisplay:10.34,2013-08-13 22:18:00,
2013-08-13 16:23:00,81.3,46.9,30.06,NNE,21,2.0,2.0,30,0.00,OVC,OVC,0.00,WeatherDisplay:10.34,2013-08-13 22:23:00,
2013-08-13 16:28:00,81.0,49.2,30.06,NNW,338,4.0,5.0,33,0.00,OVC,OVC,0.00,WeatherDisplay:10.34,2013-08-13 22:28:00,
2013-08-13 16:33:00,80.7,49.7,30.07,NW,319,3.0,5.0,34,0.00,OVC,OVC,0.00,WeatherDisplay:10.34,2013-08-13 22:33:00,
2013-08-13 16:38:00,80.3,50.1,30.07,WNW,299,5.0,8.0,35,0.00,OVC,OVC,0.00,WeatherDisplay:10.34,2013-08-13 22:38:00,
2013-08-13 16:43:00,79.3,48.5,30.09,West,259,27.0,27.0,34,0.00,OVC,OVC,0.00,WeatherDisplay:10.34,2013-08-13 22:43:00,
2013-08-13 16:48:00,76.4,46.7,30.10,WSW,252,15.0,15.0,35,0.00,OVC,OVC,0.00,WeatherDisplay:10.34,2013-08-13 22:48:00,
2013-08-13 16:53:00,74.0,44.6,30.09,WSW,251,30.0,31.0,35,0.00,OVC,OVC,0.00,WeatherDisplay:10.34,2013-08-13 22:53:00,
2013-08-13 16:58:00,72.8,45.7,30.09,WSW,257,23.0,29.0,38,0.00,OVC,OVC,0.00,WeatherDisplay:10.34,2013-08-13 22:58:00,
2013-08-13 17:03:00,71.1,47.5,30.09,West,264,27.0,28.0,43,0.00,OVC,OVC,0.00,WeatherDisplay:10.34,2013-08-13 23:03:00,
2013-08-13 17:08:00,69.5,47.8,30.09,West,264,21.0,25.0,46,0.00,OVC,OVC,0.00,WeatherDisplay:10.34,2013-08-13 23:08:00,
2013-08-13 17:13:00,68.0,50.2,30.10,West,265,24.0,24.0,53,0.00,OVC,OVC,0.00,WeatherDisplay:10.34,2013-08-13 23:13:00,
2013-08-13 17:18:00,65.9,50.7,30.10,SW,234,24.0,29.0,58,0.00,OVC,OVC,0.00,WeatherDisplay:10.34,2013-08-13 23:18:00,
2013-08-13 17:23:00,64.7,50.9,30.10,West,276,16.0,17.0,61,0.00,OVC,OVC,0.00,WeatherDisplay:10.34,2013-08-13 23:23:00,
2013-08-13 17:28:00,64.5,50.7,30.10,West,276,12.0,12.0,61,0.00,OVC,OVC,0.00,WeatherDisplay:10.34,2013-08-13 23:28:00,
2013-08-13 17:33:00,64.7,50.5,30.10,WSW,252,10.0,10.0,60,0.00,OVC,OVC,0.00,WeatherDisplay:10.34,2013-08-13 23:33:00,
2013-08-13 17:38:00,64.8,51.5,30.10,WNW,300,6.0,7.0,62,0.00,OVC,OVC,0.00,WeatherDisplay:10.34,2013-08-13 23:38:00,
2013-08-13 17:43:00,64.8,50.6,30.10,WNW,298,17.0,23.0,60,0.00,OVC,OVC,0.00,WeatherDisplay:10.34,2013-08-13 23:43:00,
2013-08-13 17:48:00,65.0,50.8,30.10,WNW,302,11.0,13.0,60,0.00,OVC,OVC,0.00,WeatherDisplay:10.34,2013-08-13 23:48:00,
2013-08-13 17:53:00,65.1,50.4,30.10,West,268,20.0,24.0,59,0.00,OVC,OVC,0.00,WeatherDisplay:10.34,2013-08-13 23:53:00,
2013-08-13 17:58:00,65.5,50.3,30.10,West,279,12.0,22.0,58,0.00,OVC,OVC,0.00,WeatherDisplay:10.34,2013-08-13 23:58:00,
2013-08-13 18:03:00,65.7,50.0,30.10,SSW,192,11.0,11.0,57,0.00,OVC,OVC,0.00,WeatherDisplay:10.34,2013-08-14 00:03:00,
2013-08-13 18:08:00,66.5,47.8,30.10,NW,316,5.0,8.0,51,0.00,OVC,OVC,0.00,WeatherDisplay:10.34,2013-08-14 00:08:00,
2013-08-13 18:13:00,67.3,48.0,30.10,SW,236,5.0,5.0,50,0.00,OVC,OVC,0.00,WeatherDisplay:10.34,2013-08-14 00:13:00,
2013-08-13 18:18:00,67.8,47.9,30.10,SW,223,13.0,13.0,49,0.00,OVC,OVC,0.00,WeatherDisplay:10.34,2013-08-14 00:18:00,
2013-08-13 18:23:00,68.0,50.2,30.11,SW,226,10.0,12.0,53,0.00,OVC,OVC,0.00,WeatherDisplay:10.34,2013-08-14 00:23:00,
2013-08-13 18:28:00,67.8,47.4,30.11,WSW,250,17.0,17.0,48,0.00,OVC,OVC,0.00,WeatherDisplay:10.34,2013-08-14 00:28:00,
2013-08-13 18:33:00,68.1,47.7,30.11,WSW,238,11.0,13.0,48,0.00,OVC,OVC,0.00,WeatherDisplay:10.34,2013-08-14 00:33:00,
2013-08-13 18:38:00,68.3,48.4,30.11,WNW,283,11.0,12.0,49,0.00,OVC,OVC,0.00,WeatherDisplay:10.34,2013-08-14 00:38:00,
2013-08-13 18:43:00,68.4,49.6,30.12,WSW,242,7.0,8.0,51,0.00,OVC,OVC,0.00,WeatherDisplay:10.34,2013-08-14 00:43:00,
2013-08-13 18:48:00,68.2,49.9,30.12,West,263,10.0,10.0,52,0.00,OVC,OVC,0.00,WeatherDisplay:10.34,2013-08-14 00:48:00,
2013-08-13 18:53:00,67.9,49.6,30.13,West,281,5.0,5.0,52,0.00,OVC,OVC,0.00,WeatherDisplay:10.34,2013-08-14 00:53:00,
2013-08-13 18:58:00,67.9,49.1,30.13,NW,306,8.0,14.0,51,0.00,OVC,OVC,0.00,WeatherDisplay:10.34,2013-08-14 00:58:00,
2013-08-13 19:03:00,67.8,48.5,30.13,NNW,337,14.0,17.0,50,0.00,OVC,OVC,0.00,WeatherDisplay:10.34,2013-08-14 01:03:00,
2013-08-13 19:08:00,67.1,48.9,30.13,WNW,291,11.0,11.0,52,0.00,OVC,OVC,0.00,WeatherDisplay:10.34,2013-08-14 01:08:00,
2013-08-13 19:13:00,66.5,48.8,30.14,NNW,346,12.0,12.0,53,0.00,OVC,OVC,0.00,WeatherDisplay:10.34,2013-08-14 01:13:00,
2013-08-13 19:18:00,66.2,48.6,30.13,NNW,328,15.0,16.0,53,0.00,OVC,OVC,0.00,WeatherDisplay:10.34,2013-08-14 01:18:00,
2013-08-13 19:23:00,66.1,48.5,30.13,NNW,336,12.0,12.0,53,0.00,OVC,OVC,0.00,WeatherDisplay:10.34,2013-08-14 01:23:00,
2013-08-13 19:28:00,66.1,48.0,30.13,NNW,336,14.0,14.0,52,0.00,OVC,OVC,0.00,WeatherDisplay:10.34,2013-08-14 01:28:00,
2013-08-13 19:33:00,66.2,48.0,30.13,NNW,339,1.0,3.0,52,0.00,OVC,OVC,0.00,WeatherDisplay:10.34,2013-08-14 01:33:00,
2013-08-13 19:38:00,66.1,48.5,30.12,NW,313,3.0,3.0,53,0.00,OVC,OVC,0.00,WeatherDisplay:10.34,2013-08-14 01:38:00,
2013-08-13 19:43:00,65.9,48.3,30.13,NW,325,5.0,5.0,53,0.00,OVC,OVC,0.00,WeatherDisplay:10.34,2013-08-14 01:43:00,
2013-08-13 19:48:00,65.8,48.2,30.13,NW,316,1.0,3.0,53,0.00,OVC,OVC,0.00,WeatherDisplay:10.34,2013-08-14 01:48:00,
2013-08-13 19:53:00,65.8,48.2,30.11,North,349,0.0,1.0,53,0.00,OVC,OVC,0.00,WeatherDisplay:10.34,2013-08-14 01:53:00,
2013-08-13 19:58:00,65.8,48.2,30.11,North,350,0.0,0.0,53,0.00,OVC,OVC,0.00,WeatherDisplay:10.34,2013-08-14 01:58:00,
2013-08-13 20:03:00,65.8,47.7,30.11,WSW,255,3.0,3.0,52,0.00,BKN,BKN,0.00,WeatherDisplay:10.34,2013-08-14 02:03:00,
2013-08-13 20:08:00,65.7,48.1,30.11,WSW,245,6.0,6.0,53,0.00,BKN,BKN,0.00,WeatherDisplay:10.34,2013-08-14 02:08:00,
2013-08-13 20:13:00,65.7,47.6,30.09,West,267,1.0,1.0,52,0.00,BKN,BKN,0.00,WeatherDisplay:10.34,2013-08-14 02:13:00,
2013-08-13 20:18:00,65.6,48.5,30.09,West,267,0.0,1.0,54,0.00,CLR,CLR,0.00,WeatherDisplay:10.34,2013-08-14 02:18:00,
2013-08-13 20:23:00,65.4,47.8,30.10,WSW,245,7.0,7.0,53,0.00,OVC,OVC,0.00,WeatherDisplay:10.34,2013-08-14 02:23:00,
2013-08-13 20:28:00,65.2,47.6,30.10,WSW,257,5.0,5.0,53,0.00,OVC,OVC,0.00,WeatherDisplay:10.34,2013-08-14 02:28:00,
2013-08-13 20:33:00,65.1,50.0,30.10,SW,219,8.0,9.0,58,0.00,OVC,OVC,0.00,WeatherDisplay:10.34,2013-08-14 02:33:00,
2013-08-13 20:38:00,64.4,48.4,30.10,SW,226,6.0,8.0,56,0.00,OVC,OVC,0.00,WeatherDisplay:10.34,2013-08-14 02:38:00,
2013-08-13 20:43:00,64.0,48.5,30.10,SW,229,8.0,9.0,57,0.03,RA,RA,0.03,WeatherDisplay:10.34,2013-08-14 02:43:00,
2013-08-13 20:48:00,63.5,48.5,30.10,SSW,203,12.0,13.0,58,0.03,RA,RA,0.03,WeatherDisplay:10.34,2013-08-14 02:48:00,
2013-08-13 20:53:00,63.1,49.0,30.11,SW,229,9.0,10.0,60,0.03,OVC,OVC,0.03,WeatherDisplay:10.34,2013-08-14 02:53:00,
2013-08-13 20:58:00,62.8,49.1,30.11,SSW,213,8.0,8.0,61,0.03,OVC,OVC,0.03,WeatherDisplay:10.34,2013-08-14 02:58:00,
2013-08-13 21:03:00,62.5,49.3,30.11,SSW,213,7.0,7.0,62,0.03,CLR,CLR,0.03,WeatherDisplay:10.34,2013-08-14 03:03:00,
2013-08-13 21:08:00,62.2,49.4,30.11,SW,232,6.0,8.0,63,0.03,CLR,CLR,0.03,WeatherDisplay:10.34,2013-08-14 03:08:00,
2013-08-13 21:13:00,62.1,48.9,30.11,WSW,242,6.0,8.0,62,0.03,CLR,CLR,0.03,WeatherDisplay:10.34,2013-08-14 03:13:00,
2013-08-13 21:18:00,62.1,48.9,30.11,SW,230,4.0,5.0,62,0.03,CLR,CLR,0.03,WeatherDisplay:10.34,2013-08-14 03:18:00,
2013-08-13 21:23:00,62.1,49.4,30.10,SSW,213,9.0,9.0,63,0.03,CLR,CLR,0.03,WeatherDisplay:10.34,2013-08-14 03:23:00,
2013-08-13 21:28:00,62.1,48.9,30.10,SSW,203,5.0,7.0,62,0.03,CLR,CLR,0.03,WeatherDisplay:10.34,2013-08-14 03:28:00,
2013-08-13 21:33:00,62.1,49.4,30.10,SSW,208,8.0,8.0,63,0.03,CLR,CLR,0.03,WeatherDisplay:10.34,2013-08-14 03:33:00,
2013-08-13 21:38:00,62.1,48.9,30.10,SW,226,9.0,9.0,62,0.03,CLR,CLR,0.03,WeatherDisplay:10.34,2013-08-14 03:38:00,
2013-08-13 21:43:00,62.2,49.0,30.09,SW,215,10.0,10.0,62,0.00,CLR,CLR,0.03,WeatherDisplay:10.34,2013-08-14 03:43:00,
2013-08-13 21:48:00,62.4,48.8,30.09,SSW,206,11.0,11.0,61,0.00,CLR,CLR,0.03,WeatherDisplay:10.34,2013-08-14 03:48:00,
2013-08-13 21:53:00,62.6,48.5,30.09,SSW,207,11.0,11.0,60,0.00,CLR,CLR,0.03,WeatherDisplay:10.34,2013-08-14 03:53:00,
2013-08-13 21:58:00,62.6,48.5,30.09,SSW,211,4.0,7.0,60,0.00,CLR,CLR,0.03,WeatherDisplay:10.34,2013-08-14 03:58:00,
2013-08-13 22:01:00,62.7,48.6,30.07,SSW,204,2.0,3.0,60,0.00,CLR,CLR,0.03,WeatherDisplay:10.34,2013-08-14 04:01:00,
2013-08-13 22:02:00,62.7,49.1,30.07,SSW,199,5.0,7.0,61,0.00,CLR,CLR,0.03,WeatherDisplay:10.34,2013-08-14 04:02:00,
2013-08-13 22:05:00,62.7,49.1,30.07,SSW,208,5.0,5.0,61,0.00,CLR,CLR,0.03,WeatherDisplay:10.34,2013-08-14 04:05:00,
2013-08-13 22:10:00,62.6,49.4,30.07,SSW,209,5.0,5.0,62,0.00,CLR,CLR,0.03,WeatherDisplay:10.34,2013-08-14 04:10:00,
2013-08-13 22:15:00,62.5,49.3,30.07,SSE,159,6.0,6.0,62,0.00,CLR,CLR,0.03,WeatherDisplay:10.34,2013-08-14 04:15:00,
2013-08-13 22:20:00,62.3,49.1,30.07,SSW,192,4.0,4.0,62,0.00,CLR,CLR,0.03,WeatherDisplay:10.34,2013-08-14 04:20:00,
2013-08-13 22:25:00,62.2,49.4,30.09,SSW,192,4.0,4.0,63,0.00,CLR,CLR,0.03,WeatherDisplay:10.34,2013-08-14 04:25:00,
2013-08-13 22:30:00,62.0,49.7,30.09,South,191,2.0,2.0,64,0.00,CLR,CLR,0.03,WeatherDisplay:10.34,2013-08-14 04:30:00,
2013-08-13 22:35:00,61.9,49.2,30.09,South,191,0.0,0.0,63,0.00,CLR,CLR,0.03,WeatherDisplay:10.34,2013-08-14 04:35:00,
2013-08-13 22:40:00,61.7,49.0,30.10,ENE,72,7.0,10.0,63,0.00,CLR,CLR,0.03,WeatherDisplay:10.34,2013-08-14 04:40:00,
2013-08-13 22:45:00,61.7,49.0,30.10,East,83,7.0,8.0,63,0.00,CLR,CLR,0.03,WeatherDisplay:10.34,2013-08-14 04:45:00,
2013-08-13 22:50:00,61.8,48.6,30.11,East,79,4.0,7.0,62,0.00,CLR,CLR,0.03,WeatherDisplay:10.34,2013-08-14 04:50:00,
2013-08-13 22:55:00,61.9,48.3,30.11,ENE,67,2.0,3.0,61,0.00,CLR,CLR,0.03,WeatherDisplay:10.34,2013-08-14 04:55:00,
2013-08-13 23:00:00,62.1,47.6,30.11,ENE,69,5.0,5.0,59,0.00,CLR,CLR,0.03,WeatherDisplay:10.34,2013-08-14 05:00:00,
2013-08-13 23:05:00,62.3,46.9,30.11,East,94,5.0,7.0,57,0.00,CLR,CLR,0.03,WeatherDisplay:10.34,2013-08-14 05:05:00,
2013-08-13 23:10:00,62.6,46.7,30.10,East,86,5.0,5.0,56,0.00,CLR,CLR,0.03,WeatherDisplay:10.34,2013-08-14 05:10:00,
2013-08-13 23:15:00,62.9,46.0,30.10,ENE,77,4.0,4.0,54,0.00,CLR,CLR,0.03,WeatherDisplay:10.34,2013-08-14 05:15:00,
2013-08-13 23:20:00,63.0,45.6,30.11,East,90,4.0,4.0,53,0.00,CLR,CLR,0.03,WeatherDisplay:10.34,2013-08-14 05:20:00,
2013-08-13 23:25:00,63.2,45.3,30.11,East,80,2.0,2.0,52,0.00,CLR,CLR,0.03,WeatherDisplay:10.34,2013-08-14 05:25:00,
2013-08-13 23:30:00,63.3,45.4,30.11,ESE,109,3.0,3.0,52,0.00,CLR,CLR,0.03,WeatherDisplay:10.34,2013-08-14 05:30:00,
2013-08-13 23:35:00,63.4,44.9,30.11,NE,52,0.0,2.0,51,0.00,CLR,CLR,0.03,WeatherDisplay:10.34,2013-08-14 05:35:00,
2013-08-13 23:40:00,63.0,47.5,30.11,NNE,23,1.0,0.0,57,0.00,CLR,CLR,0.03,WeatherDisplay:10.34,2013-08-14 05:40:00,
2013-08-13 23:45:00,62.3,47.8,30.11,WNW,288,4.0,4.0,59,0.00,CLR,CLR,0.03,WeatherDisplay:10.34,2013-08-14 05:45:00,
2013-08-13 23:50:00,61.6,48.0,30.11,WNW,283,0.0,1.0,61,0.00,CLR,CLR,0.03,WeatherDisplay:10.34,2013-08-14 05:50:00,
2013-08-13 23:55:00,60.8,47.3,30.12,WNW,289,2.0,2.0,61,0.00,CLR,CLR,0.03,WeatherDisplay:10.34,2013-08-14 05:55:00,